sensor_id;sensor_type;location;lat;lon;timestamp;P1;durP1;ratioP1;P2;durP2;ratioP2
4023;SDS011;2026;51.002;13.668;2023-12-20T00:02:37;5.90;;;3.30;;
4023;SDS011;2026;51.002;13.668;2023-12-20T00:07:40;5.23;;;3.70;;
4023;SDS011;2026;51.002;13.668;2023-12-20T00:12:45;3.50;;;2.90;;
4023;SDS011;2026;51.002;13.668;2023-12-20T00:17:48;3.50;;;2.90;;
4023;SDS011;2026;51.002;13.668;2023-12-20T00:22:51;2.90;;;2.57;;
4023;SDS011;2026;51.002;13.668;2023-12-20T00:27:55;2.60;;;2.40;;
4023;SDS011;2026;51.002;13.668;2023-12-20T00:32:58;3.20;;;2.60;;
4023;SDS011;2026;51.002;13.668;2023-12-20T00:38:01;2.90;;;2.57;;
4023;SDS011;2026;51.002;13.668;2023-12-20T00:43:08;3.40;;;2.10;;
4023;SDS011;2026;51.002;13.668;2023-12-20T00:48:10;3.07;;;2.20;;
4023;SDS011;2026;51.002;13.668;2023-12-20T00:53:13;2.97;;;2.20;;
4023;SDS011;2026;51.002;13.668;2023-12-20T00:58:18;2.33;;;2.00;;
4023;SDS011;2026;51.002;13.668;2023-12-20T01:03:21;2.17;;;1.80;;
4023;SDS011;2026;51.002;13.668;2023-12-20T01:08:25;2.10;;;1.90;;
4023;SDS011;2026;51.002;13.668;2023-12-20T01:13:29;2.67;;;1.80;;
4023;SDS011;2026;51.002;13.668;2023-12-20T01:18:32;1.50;;;1.40;;
4023;SDS011;2026;51.002;13.668;2023-12-20T01:23:35;2.17;;;1.90;;
4023;SDS011;2026;51.002;13.668;2023-12-20T01:28:39;2.10;;;1.53;;
4023;SDS011;2026;51.002;13.668;2023-12-20T01:33:42;1.57;;;1.47;;
4023;SDS011;2026;51.002;13.668;2023-12-20T01:38:45;2.47;;;1.90;;
4023;SDS011;2026;51.002;13.668;2023-12-20T01:43:49;1.73;;;1.50;;
4023;SDS011;2026;51.002;13.668;2023-12-20T01:48:54;2.07;;;1.83;;
4023;SDS011;2026;51.002;13.668;2023-12-20T01:53:57;1.80;;;1.70;;
4023;SDS011;2026;51.002;13.668;2023-12-20T01:59:04;1.70;;;1.60;;
4023;SDS011;2026;51.002;13.668;2023-12-20T02:04:06;1.80;;;1.50;;
4023;SDS011;2026;51.002;13.668;2023-12-20T02:09:10;1.60;;;1.50;;
4023;SDS011;2026;51.002;13.668;2023-12-20T02:14:14;2.30;;;1.60;;
4023;SDS011;2026;51.002;13.668;2023-12-20T02:19:17;1.37;;;1.27;;
4023;SDS011;2026;51.002;13.668;2023-12-20T02:24:23;1.40;;;1.20;;
4023;SDS011;2026;51.002;13.668;2023-12-20T02:29:27;1.50;;;1.10;;
4023;SDS011;2026;51.002;13.668;2023-12-20T02:34:30;1.40;;;1.10;;
4023;SDS011;2026;51.002;13.668;2023-12-20T02:39:34;1.57;;;1.20;;
4023;SDS011;2026;51.002;13.668;2023-12-20T02:44:37;1.57;;;1.30;;
4023;SDS011;2026;51.002;13.668;2023-12-20T02:49:40;1.20;;;1.10;;
4023;SDS011;2026;51.002;13.668;2023-12-20T02:54:45;1.40;;;1.30;;
4023;SDS011;2026;51.002;13.668;2023-12-20T02:59:48;1.23;;;1.13;;
4023;SDS011;2026;51.002;13.668;2023-12-20T03:04:51;1.57;;;0.97;;
4023;SDS011;2026;51.002;13.668;2023-12-20T03:09:55;1.00;;;1.00;;
4023;SDS011;2026;51.002;13.668;2023-12-20T03:15:18;1.10;;;1.00;;
4023;SDS011;2026;51.002;13.668;2023-12-20T03:20:21;1.13;;;1.03;;
4023;SDS011;2026;51.002;13.668;2023-12-20T03:25:25;1.20;;;1.10;;
4023;SDS011;2026;51.002;13.668;2023-12-20T03:30:28;1.07;;;0.97;;
4023;SDS011;2026;51.002;13.668;2023-12-20T03:35:31;1.20;;;1.10;;
4023;SDS011;2026;51.002;13.668;2023-12-20T03:40:35;1.10;;;1.00;;
4023;SDS011;2026;51.002;13.668;2023-12-20T03:45:38;0.80;;;0.80;;
4023;SDS011;2026;51.002;13.668;2023-12-20T03:50:41;1.00;;;1.00;;
4023;SDS011;2026;51.002;13.668;2023-12-20T03:55:45;0.87;;;0.87;;
4023;SDS011;2026;51.002;13.668;2023-12-20T04:00:48;1.03;;;1.00;;
4023;SDS011;2026;51.002;13.668;2023-12-20T04:05:51;1.00;;;0.90;;
4023;SDS011;2026;51.002;13.668;2023-12-20T04:10:55;1.10;;;1.00;;
4023;SDS011;2026;51.002;13.668;2023-12-20T04:15:58;1.37;;;0.97;;
4023;SDS011;2026;51.002;13.668;2023-12-20T04:21:01;0.87;;;0.87;;
4023;SDS011;2026;51.002;13.668;2023-12-20T04:26:06;0.80;;;0.80;;
4023;SDS011;2026;51.002;13.668;2023-12-20T04:31:09;1.53;;;0.80;;
4023;SDS011;2026;51.002;13.668;2023-12-20T04:36:12;1.37;;;0.90;;
4023;SDS011;2026;51.002;13.668;2023-12-20T04:41:16;1.00;;;1.00;;
4023;SDS011;2026;51.002;13.668;2023-12-20T04:46:20;1.07;;;1.03;;
4023;SDS011;2026;51.002;13.668;2023-12-20T04:51:23;1.07;;;0.97;;
4023;SDS011;2026;51.002;13.668;2023-12-20T04:56:27;1.10;;;1.00;;
4023;SDS011;2026;51.002;13.668;2023-12-20T05:01:30;1.17;;;1.07;;
4023;SDS011;2026;51.002;13.668;2023-12-20T05:06:33;1.33;;;1.13;;
4023;SDS011;2026;51.002;13.668;2023-12-20T05:11:38;2.33;;;1.53;;
4023;SDS011;2026;51.002;13.668;2023-12-20T05:16:41;1.80;;;1.17;;
4023;SDS011;2026;51.002;13.668;2023-12-20T05:21:43;1.20;;;1.00;;
4023;SDS011;2026;51.002;13.668;2023-12-20T05:26:48;1.10;;;1.00;;
4023;SDS011;2026;51.002;13.668;2023-12-20T05:31:54;2.00;;;1.80;;
4023;SDS011;2026;51.002;13.668;2023-12-20T05:36:57;2.00;;;1.90;;
4023;SDS011;2026;51.002;13.668;2023-12-20T05:42:01;1.13;;;0.97;;
4023;SDS011;2026;51.002;13.668;2023-12-20T05:47:04;0.97;;;0.97;;
4023;SDS011;2026;51.002;13.668;2023-12-20T05:52:07;1.40;;;1.30;;
4023;SDS011;2026;51.002;13.668;2023-12-20T05:57:11;1.43;;;1.30;;
4023;SDS011;2026;51.002;13.668;2023-12-20T06:02:14;2.07;;;1.30;;
4023;SDS011;2026;51.002;13.668;2023-12-20T06:07:17;1.57;;;1.10;;
4023;SDS011;2026;51.002;13.668;2023-12-20T06:12:22;2.00;;;1.30;;
4023;SDS011;2026;51.002;13.668;2023-12-20T06:17:25;5.33;;;1.50;;
4023;SDS011;2026;51.002;13.668;2023-12-20T06:22:28;2.30;;;1.63;;
4023;SDS011;2026;51.002;13.668;2023-12-20T06:27:32;2.13;;;1.70;;
4023;SDS011;2026;51.002;13.668;2023-12-20T06:32:35;4.00;;;2.30;;
4023;SDS011;2026;51.002;13.668;2023-12-20T06:37:39;1.70;;;1.60;;
4023;SDS011;2026;51.002;13.668;2023-12-20T06:42:45;1.80;;;1.70;;
4023;SDS011;2026;51.002;13.668;2023-12-20T06:48:05;3.90;;;2.03;;
4023;SDS011;2026;51.002;13.668;2023-12-20T06:53:09;4.90;;;2.10;;
4023;SDS011;2026;51.002;13.668;2023-12-20T06:58:13;2.63;;;1.80;;
4023;SDS011;2026;51.002;13.668;2023-12-20T07:03:16;2.23;;;2.03;;
4023;SDS011;2026;51.002;13.668;2023-12-20T07:08:19;2.50;;;2.30;;
4023;SDS011;2026;51.002;13.668;2023-12-20T07:13:23;3.90;;;2.73;;
4023;SDS011;2026;51.002;13.668;2023-12-20T07:18:26;5.83;;;3.03;;
4023;SDS011;2026;51.002;13.668;2023-12-20T07:23:29;4.23;;;2.83;;
4023;SDS011;2026;51.002;13.668;2023-12-20T07:28:34;3.93;;;3.07;;
4023;SDS011;2026;51.002;13.668;2023-12-20T07:33:37;5.87;;;3.60;;
4023;SDS011;2026;51.002;13.668;2023-12-20T07:38:40;4.83;;;3.10;;
4023;SDS011;2026;51.002;13.668;2023-12-20T07:43:47;2.67;;;2.47;;
4023;SDS011;2026;51.002;13.668;2023-12-20T07:48:50;5.77;;;2.60;;
4023;SDS011;2026;51.002;13.668;2023-12-20T07:53:53;2.63;;;2.40;;
4023;SDS011;2026;51.002;13.668;2023-12-20T07:58:58;3.63;;;2.50;;
4023;SDS011;2026;51.002;13.668;2023-12-20T08:04:01;2.30;;;2.10;;
4023;SDS011;2026;51.002;13.668;2023-12-20T08:09:05;3.07;;;2.40;;
4023;SDS011;2026;51.002;13.668;2023-12-20T08:14:09;2.43;;;2.10;;
4023;SDS011;2026;51.002;13.668;2023-12-20T08:19:12;3.00;;;2.70;;
4023;SDS011;2026;51.002;13.668;2023-12-20T08:24:15;2.43;;;2.03;;
4023;SDS011;2026;51.002;13.668;2023-12-20T08:29:19;3.30;;;2.00;;
4023;SDS011;2026;51.002;13.668;2023-12-20T08:34:22;3.17;;;2.10;;
4023;SDS011;2026;51.002;13.668;2023-12-20T08:39:26;2.80;;;2.20;;
4023;SDS011;2026;51.002;13.668;2023-12-20T08:44:30;3.10;;;1.80;;
4023;SDS011;2026;51.002;13.668;2023-12-20T08:49:33;4.30;;;1.90;;
4023;SDS011;2026;51.002;13.668;2023-12-20T08:54:36;3.10;;;1.83;;
4023;SDS011;2026;51.002;13.668;2023-12-20T08:59:40;3.63;;;1.50;;
4023;SDS011;2026;51.002;13.668;2023-12-20T09:04:43;2.90;;;1.50;;
4023;SDS011;2026;51.002;13.668;2023-12-20T09:09:46;1.63;;;1.33;;
4023;SDS011;2026;51.002;13.668;2023-12-20T09:14:51;3.00;;;1.80;;
4023;SDS011;2026;51.002;13.668;2023-12-20T09:19:54;2.43;;;1.60;;
4023;SDS011;2026;51.002;13.668;2023-12-20T09:24:57;2.07;;;1.43;;
4023;SDS011;2026;51.002;13.668;2023-12-20T09:30:02;5.03;;;2.10;;
4023;SDS011;2026;51.002;13.668;2023-12-20T09:35:06;3.60;;;2.20;;
4023;SDS011;2026;51.002;13.668;2023-12-20T09:40:11;2.37;;;1.70;;
4023;SDS011;2026;51.002;13.668;2023-12-20T09:45:17;3.00;;;2.20;;
4023;SDS011;2026;51.002;13.668;2023-12-20T09:50:24;2.80;;;1.57;;
4023;SDS011;2026;51.002;13.668;2023-12-20T09:55:27;5.83;;;2.00;;
4023;SDS011;2026;51.002;13.668;2023-12-20T10:00:34;3.90;;;1.40;;
4023;SDS011;2026;51.002;13.668;2023-12-20T10:05:38;7.20;;;2.07;;
4023;SDS011;2026;51.002;13.668;2023-12-20T10:10:45;2.93;;;1.60;;
4023;SDS011;2026;51.002;13.668;2023-12-20T10:15:50;3.50;;;1.57;;
4023;SDS011;2026;51.002;13.668;2023-12-20T10:20:53;4.07;;;2.30;;
4023;SDS011;2026;51.002;13.668;2023-12-20T10:25:57;3.20;;;1.80;;
4023;SDS011;2026;51.002;13.668;2023-12-20T10:31:02;1.83;;;1.73;;
4023;SDS011;2026;51.002;13.668;2023-12-20T10:36:06;7.17;;;1.90;;
4023;SDS011;2026;51.002;13.668;2023-12-20T10:41:09;2.00;;;1.80;;
4023;SDS011;2026;51.002;13.668;2023-12-20T10:46:15;2.13;;;1.83;;
4023;SDS011;2026;51.002;13.668;2023-12-20T10:51:18;2.47;;;2.13;;
4023;SDS011;2026;51.002;13.668;2023-12-20T10:56:24;5.97;;;2.03;;
4023;SDS011;2026;51.002;13.668;2023-12-20T11:01:31;5.17;;;2.20;;
4023;SDS011;2026;51.002;13.668;2023-12-20T11:06:36;4.60;;;2.07;;
4023;SDS011;2026;51.002;13.668;2023-12-20T11:11:51;4.37;;;1.93;;
4023;SDS011;2026;51.002;13.668;2023-12-20T11:17:07;4.20;;;2.10;;
4023;SDS011;2026;51.002;13.668;2023-12-20T11:22:10;4.97;;;1.70;;
4023;SDS011;2026;51.002;13.668;2023-12-20T11:27:13;3.83;;;1.87;;
4023;SDS011;2026;51.002;13.668;2023-12-20T11:32:30;10.73;;;1.97;;
4023;SDS011;2026;51.002;13.668;2023-12-20T11:37:35;4.80;;;1.80;;
4023;SDS011;2026;51.002;13.668;2023-12-20T11:42:39;5.97;;;2.70;;
4023;SDS011;2026;51.002;13.668;2023-12-20T11:47:46;3.60;;;2.30;;
4023;SDS011;2026;51.002;13.668;2023-12-20T11:52:52;4.80;;;2.23;;
4023;SDS011;2026;51.002;13.668;2023-12-20T11:57:56;4.63;;;2.20;;
4023;SDS011;2026;51.002;13.668;2023-12-20T12:03:01;4.80;;;2.47;;
4023;SDS011;2026;51.002;13.668;2023-12-20T12:08:05;4.47;;;1.83;;
4023;SDS011;2026;51.002;13.668;2023-12-20T12:13:09;6.80;;;2.40;;
4023;SDS011;2026;51.002;13.668;2023-12-20T12:18:16;3.50;;;2.13;;
4023;SDS011;2026;51.002;13.668;2023-12-20T12:23:22;2.43;;;1.80;;
4023;SDS011;2026;51.002;13.668;2023-12-20T12:28:26;5.23;;;1.70;;
4023;SDS011;2026;51.002;13.668;2023-12-20T12:33:32;4.90;;;1.87;;
4023;SDS011;2026;51.002;13.668;2023-12-20T12:38:35;4.47;;;2.30;;
4023;SDS011;2026;51.002;13.668;2023-12-20T12:43:38;5.40;;;2.43;;
4023;SDS011;2026;51.002;13.668;2023-12-20T12:48:42;5.60;;;1.97;;
4023;SDS011;2026;51.002;13.668;2023-12-20T12:53:47;4.17;;;1.90;;
4023;SDS011;2026;51.002;13.668;2023-12-20T12:58:50;2.93;;;1.80;;
4023;SDS011;2026;51.002;13.668;2023-12-20T13:03:55;4.20;;;2.17;;
4023;SDS011;2026;51.002;13.668;2023-12-20T13:08:58;3.90;;;2.20;;
4023;SDS011;2026;51.002;13.668;2023-12-20T13:14:01;4.57;;;2.47;;
4023;SDS011;2026;51.002;13.668;2023-12-20T13:19:06;4.20;;;2.13;;
4023;SDS011;2026;51.002;13.668;2023-12-20T13:24:10;5.77;;;1.90;;
4023;SDS011;2026;51.002;13.668;2023-12-20T13:29:13;9.90;;;4.70;;
4023;SDS011;2026;51.002;13.668;2023-12-20T13:34:17;3.03;;;2.63;;
4023;SDS011;2026;51.002;13.668;2023-12-20T13:39:21;2.80;;;2.00;;
4023;SDS011;2026;51.002;13.668;2023-12-20T13:44:24;3.40;;;2.00;;
4023;SDS011;2026;51.002;13.668;2023-12-20T13:49:28;5.23;;;2.20;;
4023;SDS011;2026;51.002;13.668;2023-12-20T13:54:32;3.50;;;2.10;;
4023;SDS011;2026;51.002;13.668;2023-12-20T13:59:35;3.77;;;2.00;;
4023;SDS011;2026;51.002;13.668;2023-12-20T14:04:39;6.13;;;2.00;;
4023;SDS011;2026;51.002;13.668;2023-12-20T14:09:44;5.13;;;2.03;;
4023;SDS011;2026;51.002;13.668;2023-12-20T14:14:48;3.33;;;1.70;;
4023;SDS011;2026;51.002;13.668;2023-12-20T14:19:52;5.73;;;2.43;;
4023;SDS011;2026;51.002;13.668;2023-12-20T14:24:56;4.07;;;1.80;;
4023;SDS011;2026;51.002;13.668;2023-12-20T14:29:59;2.90;;;2.60;;
4023;SDS011;2026;51.002;13.668;2023-12-20T14:35:04;2.00;;;1.80;;
4023;SDS011;2026;51.002;13.668;2023-12-20T14:40:08;4.20;;;2.20;;
4023;SDS011;2026;51.002;13.668;2023-12-20T14:45:17;5.00;;;2.47;;
4023;SDS011;2026;51.002;13.668;2023-12-20T14:50:22;2.20;;;1.90;;
4023;SDS011;2026;51.002;13.668;2023-12-20T14:55:25;2.60;;;1.70;;
4023;SDS011;2026;51.002;13.668;2023-12-20T15:00:31;7.23;;;2.00;;
4023;SDS011;2026;51.002;13.668;2023-12-20T15:05:36;3.27;;;1.53;;
4023;SDS011;2026;51.002;13.668;2023-12-20T15:10:39;2.63;;;1.80;;
4023;SDS011;2026;51.002;13.668;2023-12-20T15:15:42;2.03;;;1.83;;
4023;SDS011;2026;51.002;13.668;2023-12-20T15:20:49;2.10;;;1.70;;
4023;SDS011;2026;51.002;13.668;2023-12-20T15:25:52;2.40;;;1.60;;
4023;SDS011;2026;51.002;13.668;2023-12-20T15:30:55;3.90;;;1.70;;
4023;SDS011;2026;51.002;13.668;2023-12-20T15:36:00;3.70;;;2.10;;
4023;SDS011;2026;51.002;13.668;2023-12-20T15:41:03;2.03;;;1.57;;
4023;SDS011;2026;51.002;13.668;2023-12-20T15:46:06;3.00;;;1.70;;
4023;SDS011;2026;51.002;13.668;2023-12-20T15:51:13;3.13;;;2.17;;
4023;SDS011;2026;51.002;13.668;2023-12-20T15:56:17;4.33;;;1.67;;
4023;SDS011;2026;51.002;13.668;2023-12-20T16:01:20;4.20;;;2.00;;
4023;SDS011;2026;51.002;13.668;2023-12-20T16:06:25;1.73;;;1.60;;
4023;SDS011;2026;51.002;13.668;2023-12-20T16:11:28;2.80;;;1.80;;
4023;SDS011;2026;51.002;13.668;2023-12-20T16:16:31;5.23;;;2.10;;
4023;SDS011;2026;51.002;13.668;2023-12-20T16:21:36;3.87;;;2.70;;
4023;SDS011;2026;51.002;13.668;2023-12-20T16:26:39;3.70;;;1.90;;
4023;SDS011;2026;51.002;13.668;2023-12-20T16:31:42;4.03;;;1.80;;
4023;SDS011;2026;51.002;13.668;2023-12-20T16:36:49;3.17;;;1.93;;
4023;SDS011;2026;51.002;13.668;2023-12-20T16:41:54;3.67;;;2.10;;
4023;SDS011;2026;51.002;13.668;2023-12-20T16:46:57;4.47;;;2.87;;
4023;SDS011;2026;51.002;13.668;2023-12-20T16:52:01;2.87;;;2.40;;
4023;SDS011;2026;51.002;13.668;2023-12-20T16:57:06;5.73;;;2.90;;
4023;SDS011;2026;51.002;13.668;2023-12-20T17:02:09;4.27;;;2.73;;
4023;SDS011;2026;51.002;13.668;2023-12-20T17:07:14;2.10;;;1.70;;
4023;SDS011;2026;51.002;13.668;2023-12-20T17:12:18;4.27;;;2.00;;
4023;SDS011;2026;51.002;13.668;2023-12-20T17:17:21;2.07;;;1.87;;
4023;SDS011;2026;51.002;13.668;2023-12-20T17:22:25;3.40;;;2.20;;
4023;SDS011;2026;51.002;13.668;2023-12-20T17:27:28;3.83;;;2.13;;
4023;SDS011;2026;51.002;13.668;2023-12-20T17:32:32;5.50;;;2.37;;
4023;SDS011;2026;51.002;13.668;2023-12-20T17:37:40;3.10;;;1.97;;
4023;SDS011;2026;51.002;13.668;2023-12-20T17:42:43;5.03;;;2.47;;
4023;SDS011;2026;51.002;13.668;2023-12-20T17:47:47;4.30;;;2.00;;
4023;SDS011;2026;51.002;13.668;2023-12-20T17:52:52;5.10;;;2.23;;
4023;SDS011;2026;51.002;13.668;2023-12-20T17:57:56;5.53;;;2.20;;
4023;SDS011;2026;51.002;13.668;2023-12-20T18:02:59;4.80;;;2.50;;
4023;SDS011;2026;51.002;13.668;2023-12-20T18:08:04;8.07;;;2.10;;
4023;SDS011;2026;51.002;13.668;2023-12-20T18:13:08;4.20;;;1.77;;
4023;SDS011;2026;51.002;13.668;2023-12-20T18:18:11;2.40;;;2.10;;
4023;SDS011;2026;51.002;13.668;2023-12-20T18:23:15;2.90;;;2.20;;
4023;SDS011;2026;51.002;13.668;2023-12-20T18:28:18;5.20;;;2.37;;
4023;SDS011;2026;51.002;13.668;2023-12-20T18:33:22;8.90;;;4.50;;
4023;SDS011;2026;51.002;13.668;2023-12-20T18:38:26;5.30;;;2.50;;
4023;SDS011;2026;51.002;13.668;2023-12-20T18:43:31;4.47;;;2.20;;
4023;SDS011;2026;51.002;13.668;2023-12-20T18:48:34;3.10;;;2.30;;
4023;SDS011;2026;51.002;13.668;2023-12-20T18:53:40;6.60;;;2.77;;
4023;SDS011;2026;51.002;13.668;2023-12-20T18:58:43;3.27;;;2.10;;
4023;SDS011;2026;51.002;13.668;2023-12-20T19:03:47;7.27;;;3.03;;
4023;SDS011;2026;51.002;13.668;2023-12-20T19:08:52;5.30;;;2.90;;
4023;SDS011;2026;51.002;13.668;2023-12-20T19:13:55;3.80;;;2.63;;
4023;SDS011;2026;51.002;13.668;2023-12-20T19:18:58;6.33;;;2.47;;
4023;SDS011;2026;51.002;13.668;2023-12-20T19:24:03;3.97;;;2.70;;
4023;SDS011;2026;51.002;13.668;2023-12-20T19:29:06;5.50;;;2.63;;
4023;SDS011;2026;51.002;13.668;2023-12-20T19:34:09;4.90;;;2.30;;
4023;SDS011;2026;51.002;13.668;2023-12-20T19:39:14;9.90;;;2.97;;
4023;SDS011;2026;51.002;13.668;2023-12-20T19:44:17;6.60;;;2.40;;
4023;SDS011;2026;51.002;13.668;2023-12-20T19:49:20;4.30;;;2.50;;
4023;SDS011;2026;51.002;13.668;2023-12-20T19:54:25;2.03;;;1.80;;
4023;SDS011;2026;51.002;13.668;2023-12-20T19:59:28;4.57;;;2.63;;
4023;SDS011;2026;51.002;13.668;2023-12-20T20:04:31;6.03;;;2.20;;
4023;SDS011;2026;51.002;13.668;2023-12-20T20:09:35;1.90;;;1.70;;
4023;SDS011;2026;51.002;13.668;2023-12-20T20:14:38;2.07;;;1.50;;
4023;SDS011;2026;51.002;13.668;2023-12-20T20:19:41;2.00;;;1.50;;
4023;SDS011;2026;51.002;13.668;2023-12-20T20:24:46;1.87;;;1.40;;
4023;SDS011;2026;51.002;13.668;2023-12-20T20:29:48;2.70;;;2.20;;
4023;SDS011;2026;51.002;13.668;2023-12-20T20:34:51;1.53;;;1.40;;
4023;SDS011;2026;51.002;13.668;2023-12-20T20:39:56;1.83;;;1.40;;
4023;SDS011;2026;51.002;13.668;2023-12-20T20:45:01;1.30;;;1.20;;
4023;SDS011;2026;51.002;13.668;2023-12-20T20:50:05;2.07;;;1.40;;
4023;SDS011;2026;51.002;13.668;2023-12-20T20:55:10;1.63;;;1.47;;
4023;SDS011;2026;51.002;13.668;2023-12-20T21:00:13;2.43;;;1.50;;
4023;SDS011;2026;51.002;13.668;2023-12-20T21:05:17;1.57;;;1.33;;
4023;SDS011;2026;51.002;13.668;2023-12-20T21:10:21;1.30;;;1.20;;
4023;SDS011;2026;51.002;13.668;2023-12-20T21:15:24;1.73;;;1.63;;
4023;SDS011;2026;51.002;13.668;2023-12-20T21:20:27;1.90;;;1.37;;
4023;SDS011;2026;51.002;13.668;2023-12-20T21:25:32;1.37;;;1.20;;
4023;SDS011;2026;51.002;13.668;2023-12-20T21:30:35;2.87;;;1.40;;
4023;SDS011;2026;51.002;13.668;2023-12-20T21:35:39;1.50;;;1.40;;
4023;SDS011;2026;51.002;13.668;2023-12-20T21:40:43;1.33;;;1.23;;
4023;SDS011;2026;51.002;13.668;2023-12-20T21:45:46;1.20;;;1.10;;
4023;SDS011;2026;51.002;13.668;2023-12-20T21:50:49;1.40;;;1.20;;
4023;SDS011;2026;51.002;13.668;2023-12-20T21:55:54;1.37;;;1.27;;
4023;SDS011;2026;51.002;13.668;2023-12-20T22:00:56;2.03;;;1.10;;
4023;SDS011;2026;51.002;13.668;2023-12-20T22:06:04;1.50;;;1.40;;
4023;SDS011;2026;51.002;13.668;2023-12-20T22:11:08;1.13;;;1.03;;
4023;SDS011;2026;51.002;13.668;2023-12-20T22:16:11;1.93;;;1.23;;
4023;SDS011;2026;51.002;13.668;2023-12-20T22:21:16;1.00;;;0.90;;
4023;SDS011;2026;51.002;13.668;2023-12-20T22:26:20;1.73;;;1.20;;
4023;SDS011;2026;51.002;13.668;2023-12-20T22:31:23;2.07;;;1.30;;
4023;SDS011;2026;51.002;13.668;2023-12-20T22:36:26;1.20;;;1.10;;
4023;SDS011;2026;51.002;13.668;2023-12-20T22:41:31;1.10;;;1.00;;
4023;SDS011;2026;51.002;13.668;2023-12-20T22:46:34;1.37;;;1.20;;
4023;SDS011;2026;51.002;13.668;2023-12-20T22:51:37;1.20;;;1.00;;
4023;SDS011;2026;51.002;13.668;2023-12-20T22:56:41;3.67;;;1.50;;
4023;SDS011;2026;51.002;13.668;2023-12-20T23:01:44;1.87;;;1.10;;
4023;SDS011;2026;51.002;13.668;2023-12-20T23:06:48;1.43;;;1.20;;
4023;SDS011;2026;51.002;13.668;2023-12-20T23:11:52;2.20;;;1.80;;
4023;SDS011;2026;51.002;13.668;2023-12-20T23:16:55;1.40;;;1.20;;
4023;SDS011;2026;51.002;13.668;2023-12-20T23:21:58;3.10;;;1.40;;
4023;SDS011;2026;51.002;13.668;2023-12-20T23:27:03;1.83;;;1.50;;
4023;SDS011;2026;51.002;13.668;2023-12-20T23:32:06;2.23;;;1.37;;
4023;SDS011;2026;51.002;13.668;2023-12-20T23:37:09;1.40;;;1.30;;
4023;SDS011;2026;51.002;13.668;2023-12-20T23:42:14;2.93;;;1.20;;
4023;SDS011;2026;51.002;13.668;2023-12-20T23:47:19;2.20;;;1.20;;
4023;SDS011;2026;51.002;13.668;2023-12-20T23:52:22;1.20;;;1.10;;
4023;SDS011;2026;51.002;13.668;2023-12-20T23:57:26;1.20;;;1.20;;
